DNBE

Benin Airport

Benin, Nigeria
TAF DNBE 230950Z 2312/2418 24010KT 8000 BKN012 TEMPO 2313/2318 BKN012 FEW020CB PROB30 2314/2319 5000 -TSRA BKN008 FEW018CB BECMG 2319/2321 VRB02KT FEW008
Issued Valid From Valid To
Jul-23 @ 09:50 UTC
(4 hours ago)
Jul-23 @ 12:00 UTC
(2 hours ago)
Jul-24 @ 18:00 UTC
(-1 days ago)
Jul-23 @ 12:00 to Jul-23 @ 19:00
TAF DNBE 230950Z 2312/2418 24010KT 8000 BKN012
Wind Visibility Clouds
240° at 10 knots 7,998 meters
  • Broken at 1,200' AGL
Temporary Jul-23 @ 13:00 to Jul-23 @ 18:00
TEMPO 2313/2318 BKN012 FEW020CB
Clouds
  • Broken at 1,200' AGL
  • Few at 2,000' AGL
Probable  (Probability 30%) Jul-23 @ 14:00 to Jul-23 @ 19:00
PROB30 2314/2319 5000 -TSRA BKN008 FEW018CB
Visibility Clouds Conditions
5,005 meters
  • Broken at 800' AGL
  • Few at 1,800' AGL
  • Light Thunderstorm
  • Light Rain
Becoming Jul-23 @ 19:00 to Jul-24 @ 18:00
BECMG 2319/2321 VRB02KT FEW008
Wind Visibility Clouds
Variable at 2 knots 7,998 meters
  • Few at 800' AGL
TAF DNBE 230950Z 2312/2418 24010KT 8000 BKN012 TEMPO 2313/2318 BKN012 FEW020CB PROB30 2314/2319 5000 -TSRA BKN008 FEW018CB BECMG 2319/2321 VRB02KT FEW008
Issued Jul-23 @ 09:50 UTC
(4 hours ago)
Valid From Jul-23 @ 12:00 UTC
(2 hours ago)
Valid To Jul-24 @ 18:00 UTC
(-1 days ago)
Jul-23 @ 12:00 - Jul-23 @ 19:00
Wind Visibility
240° at 10 knots 7,998 meters
Clouds
  • Broken at 1,200' AGL
Temporary Jul-23 @ 13:00 - Jul-23 @ 18:00
Clouds
  • Broken at 1,200' AGL
  • Few at 2,000' AGL
Probability 30% Probable Jul-23 @ 14:00 - Jul-23 @ 19:00
Clouds
  • Broken at 800' AGL
  • Few at 1,800' AGL
Conditions
  • Light Thunderstorm
  • Light Rain
Becoming Jul-23 @ 19:00 - Jul-24 @ 18:00
Wind Visibility
Variable at 2 knots 7,998 meters
Clouds
  • Few at 800' AGL